sensor_id;sensor_type;location;lat;lon;timestamp;pressure;altitude;pressure_sealevel;temperature;humidity
23229;BME280;11783;50.350;6.576;2023-02-23T00:01:28;95768.72;;;9.22;100.00
23229;BME280;11783;50.350;6.576;2023-02-23T00:03:58;95767.34;;;9.19;100.00
23229;BME280;11783;50.350;6.576;2023-02-23T00:06:28;95761.25;;;9.19;100.00
23229;BME280;11783;50.350;6.576;2023-02-23T00:08:54;95764.72;;;9.19;100.00
23229;BME280;11783;50.350;6.576;2023-02-23T00:11:20;95771.38;;;9.22;100.00
23229;BME280;11783;50.350;6.576;2023-02-23T00:13:48;95767.34;;;9.19;100.00
23229;BME280;11783;50.350;6.576;2023-02-23T00:16:22;95761.25;;;9.19;100.00
23229;BME280;11783;50.350;6.576;2023-02-23T00:18:56;95766.06;;;9.22;100.00
23229;BME280;11783;50.350;6.576;2023-02-23T00:21:33;95761.00;;;9.20;100.00
23229;BME280;11783;50.350;6.576;2023-02-23T00:24:05;95759.41;;;9.19;100.00
23229;BME280;11783;50.350;6.576;2023-02-23T00:26:32;95761.56;;;9.22;100.00
23229;BME280;11783;50.350;6.576;2023-02-23T00:29:10;95760.75;;;9.22;100.00
23229;BME280;11783;50.350;6.576;2023-02-23T00:31:36;95760.75;;;9.22;100.00
23229;BME280;11783;50.350;6.576;2023-02-23T00:34:03;95761.00;;;9.20;100.00
23229;BME280;11783;50.350;6.576;2023-02-23T00:36:32;95757.56;;;9.20;100.00
23229;BME280;11783;50.350;6.576;2023-02-23T00:39:00;95756.81;;;9.24;100.00
23229;BME280;11783;50.350;6.576;2023-02-23T00:41:26;95760.94;;;9.15;100.00
23229;BME280;11783;50.350;6.576;2023-02-23T00:43:56;95751.94;;;9.16;100.00
23229;BME280;11783;50.350;6.576;2023-02-23T00:46:24;95753.78;;;9.16;100.00
23229;BME280;11783;50.350;6.576;2023-02-23T00:48:52;95757.25;;;9.16;100.00
23229;BME280;11783;50.350;6.576;2023-02-23T00:51:19;95755.41;;;9.17;100.00
23229;BME280;11783;50.350;6.576;2023-02-23T00:53:45;95753.31;;;9.19;100.00
23229;BME280;11783;50.350;6.576;2023-02-23T00:56:12;95752.25;;;9.20;100.00
23229;BME280;11783;50.350;6.576;2023-02-23T00:58:38;95750.41;;;9.20;100.00
23229;BME280;11783;50.350;6.576;2023-02-23T01:01:07;95752.00;;;9.21;100.00
23229;BME280;11783;50.350;6.576;2023-02-23T01:03:34;95756.25;;;9.22;100.00
23229;BME280;11783;50.350;6.576;2023-02-23T01:06:01;95754.16;;;9.24;100.00
23229;BME280;11783;50.350;6.576;2023-02-23T01:08:30;95756.56;;;9.26;100.00
23229;BME280;11783;50.350;6.576;2023-02-23T01:10:56;95752.84;;;9.27;100.00
23229;BME280;11783;50.350;6.576;2023-02-23T01:13:23;95753.91;;;9.26;100.00
23229;BME280;11783;50.350;6.576;2023-02-23T01:15:49;95752.81;;;9.22;100.00
23229;BME280;11783;50.350;6.576;2023-02-23T01:18:18;95757.06;;;9.23;100.00
23229;BME280;11783;50.350;6.576;2023-02-23T01:20:44;95753.84;;;9.21;100.00
23229;BME280;11783;50.350;6.576;2023-02-23T01:23:13;95750.41;;;9.20;100.00
23229;BME280;11783;50.350;6.576;2023-02-23T01:25:44;95754.34;;;9.18;100.00
23229;BME280;11783;50.350;6.576;2023-02-23T01:28:17;95757.25;;;9.16;100.00
23229;BME280;11783;50.350;6.576;2023-02-23T01:30:45;95753.25;;;9.14;100.00
23229;BME280;11783;50.350;6.576;2023-02-23T01:33:10;95750.03;;;9.12;100.00
23229;BME280;11783;50.350;6.576;2023-02-23T01:35:39;95755.81;;;9.08;100.00
23229;BME280;11783;50.350;6.576;2023-02-23T01:38:06;95754.53;;;9.11;100.00
23229;BME280;11783;50.350;6.576;2023-02-23T01:40:32;95754.75;;;9.09;100.00
23229;BME280;11783;50.350;6.576;2023-02-23T01:43:13;95747.59;;;9.10;100.00
23229;BME280;11783;50.350;6.576;2023-02-23T01:45:41;95747.28;;;9.06;100.00
23229;BME280;11783;50.350;6.576;2023-02-23T01:48:18;95747.94;;;9.14;100.00
23229;BME280;11783;50.350;6.576;2023-02-23T01:50:51;95753.78;;;9.16;100.00
23229;BME280;11783;50.350;6.576;2023-02-23T01:53:18;95748.50;;;9.16;100.00
23229;BME280;11783;50.350;6.576;2023-02-23T01:55:49;95744.78;;;9.17;100.00
23229;BME280;11783;50.350;6.576;2023-02-23T01:58:23;95745.28;;;9.14;100.00
23229;BME280;11783;50.350;6.576;2023-02-23T02:00:53;95750.66;;;9.19;100.00
23229;BME280;11783;50.350;6.576;2023-02-23T02:03:34;95744.03;;;9.21;100.00
23229;BME280;11783;50.350;6.576;2023-02-23T02:06:01;95749.09;;;9.23;100.00
23229;BME280;11783;50.350;6.576;2023-02-23T02:08:29;95748.31;;;9.22;100.00
23229;BME280;11783;50.350;6.576;2023-02-23T02:10:55;95742.63;;;9.14;100.00
23229;BME280;11783;50.350;6.576;2023-02-23T02:13:25;95750.84;;;9.12;100.00
23229;BME280;11783;50.350;6.576;2023-02-23T02:19:00;95741.75;;;9.08;100.00
23229;BME280;11783;50.350;6.576;2023-02-23T02:22:25;95749.31;;;8.99;100.00
23229;BME280;11783;50.350;6.576;2023-02-23T02:25:06;95741.22;;;8.89;100.00
23229;BME280;11783;50.350;6.576;2023-02-23T02:30:51;95743.91;;;8.72;100.00
23229;BME280;11783;50.350;6.576;2023-02-23T02:41:42;95740.69;;;8.54;100.00
23229;BME280;11783;50.350;6.576;2023-02-23T02:47:07;95744.63;;;8.51;100.00
23229;BME280;11783;50.350;6.576;2023-02-23T02:49:50;95739.66;;;8.55;100.00
23229;BME280;11783;50.350;6.576;2023-02-23T02:52:24;95743.09;;;8.55;100.00
23229;BME280;11783;50.350;6.576;2023-02-23T02:55:03;95745.75;;;8.55;100.00
23229;BME280;11783;50.350;6.576;2023-02-23T02:57:33;95744.16;;;8.54;100.00
23229;BME280;11783;50.350;6.576;2023-02-23T03:00:00;95739.59;;;8.49;100.00
23229;BME280;11783;50.350;6.576;2023-02-23T03:02:44;95739.19;;;8.41;100.00
23229;BME280;11783;50.350;6.576;2023-02-23T03:05:46;95736.56;;;8.41;100.00
23229;BME280;11783;50.350;6.576;2023-02-23T03:08:43;95739.34;;;8.34;100.00
23229;BME280;11783;50.350;6.576;2023-02-23T03:11:39;95729.75;;;8.33;100.00
23229;BME280;11783;50.350;6.576;2023-02-23T03:14:51;95733.81;;;8.36;100.00
23229;BME280;11783;50.350;6.576;2023-02-23T03:29:52;95741.75;;;8.53;100.00
23229;BME280;11783;50.350;6.576;2023-02-23T03:32:51;95746.59;;;8.56;100.00
23229;BME280;11783;50.350;6.576;2023-02-23T03:36:03;95744.63;;;8.51;100.00
23229;BME280;11783;50.350;6.576;2023-02-23T03:38:58;95737.41;;;8.46;100.00
23229;BME280;11783;50.350;6.576;2023-02-23T03:41:45;95742.22;;;8.49;100.00
23229;BME280;11783;50.350;6.576;2023-02-23T03:44:35;95741.44;;;8.49;100.00
23229;BME280;11783;50.350;6.576;2023-02-23T03:47:23;95737.41;;;8.46;100.00
23229;BME280;11783;50.350;6.576;2023-02-23T03:50:15;95736.63;;;8.46;100.00
23229;BME280;11783;50.350;6.576;2023-02-23T03:53:01;95747.53;;;8.49;100.00
23229;BME280;11783;50.350;6.576;2023-02-23T03:55:52;95741.44;;;8.49;100.00
23229;BME280;11783;50.350;6.576;2023-02-23T03:58:45;95739.59;;;8.49;100.00
23229;BME280;11783;50.350;6.576;2023-02-23T04:01:31;95744.41;;;8.53;100.00
23229;BME280;11783;50.350;6.576;2023-02-23T04:04:16;95744.41;;;8.53;100.00
23229;BME280;11783;50.350;6.576;2023-02-23T04:07:05;95748.66;;;8.54;100.00
23229;BME280;11783;50.350;6.576;2023-02-23T04:09:50;95747.03;;;8.53;100.00
23229;BME280;11783;50.350;6.576;2023-02-23T04:12:55;95750.50;;;8.53;100.00
23229;BME280;11783;50.350;6.576;2023-02-23T04:15:50;95753.13;;;8.53;100.00
23229;BME280;11783;50.350;6.576;2023-02-23T04:18:23;95752.09;;;8.54;100.00
23229;BME280;11783;50.350;6.576;2023-02-23T04:20:49;95748.66;;;8.54;100.00
23229;BME280;11783;50.350;6.576;2023-02-23T04:23:15;95751.28;;;8.54;100.00
23229;BME280;11783;50.350;6.576;2023-02-23T04:25:41;95753.47;;;8.57;100.00
23229;BME280;11783;50.350;6.576;2023-02-23T04:28:07;95751.06;;;8.55;100.00
23229;BME280;11783;50.350;6.576;2023-02-23T04:30:32;95756.13;;;8.57;100.00
23229;BME280;11783;50.350;6.576;2023-02-23T04:32:57;95755.34;;;8.56;100.00
23229;BME280;11783;50.350;6.576;2023-02-23T04:35:23;95752.91;;;8.55;100.00
23229;BME280;11783;50.350;6.576;2023-02-23T04:37:49;95761.66;;;8.55;100.00
23229;BME280;11783;50.350;6.576;2023-02-23T04:40:18;95768.56;;;8.56;100.00
23229;BME280;11783;50.350;6.576;2023-02-23T04:42:43;95770.41;;;8.56;100.00
23229;BME280;11783;50.350;6.576;2023-02-23T04:45:10;95767.19;;;8.54;100.00
23229;BME280;11783;50.350;6.576;2023-02-23T04:47:36;95768.22;;;8.53;100.00
23229;BME280;11783;50.350;6.576;2023-02-23T04:50:02;95772.16;;;8.50;100.00
23229;BME280;11783;50.350;6.576;2023-02-23T04:52:28;95771.38;;;8.49;100.00
23229;BME280;11783;50.350;6.576;2023-02-23T04:54:53;95767.91;;;8.49;100.00
23229;BME280;11783;50.350;6.576;2023-02-23T04:57:18;95766.06;;;8.49;100.00
23229;BME280;11783;50.350;6.576;2023-02-23T04:59:46;95770.63;;;8.54;100.00
23229;BME280;11783;50.350;6.576;2023-02-23T05:02:12;95769.19;;;8.46;100.00
23229;BME280;11783;50.350;6.576;2023-02-23T05:04:37;95776.91;;;8.48;100.00
23229;BME280;11783;50.350;6.576;2023-02-23T05:07:03;95777.72;;;8.48;100.00
23229;BME280;11783;50.350;6.576;2023-02-23T05:09:31;95774.97;;;8.43;100.00
23229;BME280;11783;50.350;6.576;2023-02-23T05:11:57;95779.78;;;8.46;100.00
23229;BME280;11783;50.350;6.576;2023-02-23T05:14:25;95777.72;;;8.48;100.00
23229;BME280;11783;50.350;6.576;2023-02-23T05:16:53;95774.81;;;8.50;100.00
23229;BME280;11783;50.350;6.576;2023-02-23T05:19:19;95774.00;;;8.49;100.00
23229;BME280;11783;50.350;6.576;2023-02-23T05:21:44;95789.41;;;8.53;100.00
23229;BME280;11783;50.350;6.576;2023-02-23T05:24:10;95782.50;;;8.52;100.00
23229;BME280;11783;50.350;6.576;2023-02-23T05:26:36;95779.88;;;8.52;100.00
23229;BME280;11783;50.350;6.576;2023-02-23T05:29:01;95786.22;;;8.50;100.00
23229;BME280;11783;50.350;6.576;2023-02-23T05:31:27;95780.91;;;8.50;100.00
23229;BME280;11783;50.350;6.576;2023-02-23T05:33:52;95789.66;;;8.51;100.00
23229;BME280;11783;50.350;6.576;2023-02-23T05:36:23;95793.13;;;8.52;100.00
23229;BME280;11783;50.350;6.576;2023-02-23T05:38:49;95793.66;;;8.54;100.00
23229;BME280;11783;50.350;6.576;2023-02-23T05:41:18;95796.31;;;8.54;100.00
23229;BME280;11783;50.350;6.576;2023-02-23T05:43:44;95790.22;;;8.53;100.00
23229;BME280;11783;50.350;6.576;2023-02-23T05:46:14;95793.13;;;8.52;100.00
23229;BME280;11783;50.350;6.576;2023-02-23T05:48:43;95791.81;;;8.54;100.00
23229;BME280;11783;50.350;6.576;2023-02-23T05:51:11;95798.66;;;8.50;100.00
23229;BME280;11783;50.350;6.576;2023-02-23T05:53:36;95791.50;;;8.50;100.00
23229;BME280;11783;50.350;6.576;2023-02-23T05:56:06;95797.84;;;8.49;100.00
23229;BME280;11783;50.350;6.576;2023-02-23T05:58:34;95792.00;;;8.47;100.00
23229;BME280;11783;50.350;6.576;2023-02-23T06:01:02;95799.94;;;8.47;100.00
23229;BME280;11783;50.350;6.576;2023-02-23T06:03:28;95800.19;;;8.46;100.00
23229;BME280;11783;50.350;6.576;2023-02-23T06:05:56;95804.13;;;8.43;100.00
23229;BME280;11783;50.350;6.576;2023-02-23T06:08:29;95803.06;;;8.44;100.00
23229;BME280;11783;50.350;6.576;2023-02-23T06:10:57;95803.88;;;8.45;100.00
23229;BME280;11783;50.350;6.576;2023-02-23T06:13:24;95799.38;;;8.45;100.00
23229;BME280;11783;50.350;6.576;2023-02-23T06:15:49;95807.06;;;8.47;100.00
23229;BME280;11783;50.350;6.576;2023-02-23T06:18:15;95806.28;;;8.46;100.00
23229;BME280;11783;50.350;6.576;2023-02-23T06:20:42;95808.94;;;8.46;100.00
23229;BME280;11783;50.350;6.576;2023-02-23T06:23:09;95805.97;;;8.43;100.00
23229;BME280;11783;50.350;6.576;2023-02-23T06:25:36;95813.91;;;8.43;100.00
23229;BME280;11783;50.350;6.576;2023-02-23T06:28:01;95809.66;;;8.42;100.00
23229;BME280;11783;50.350;6.576;2023-02-23T06:30:27;95809.88;;;8.40;100.00
23229;BME280;11783;50.350;6.576;2023-02-23T06:32:54;95807.25;;;8.40;100.00
23229;BME280;11783;50.350;6.576;2023-02-23T06:35:20;95810.13;;;8.39;100.00
23229;BME280;11783;50.350;6.576;2023-02-23T06:37:45;95803.22;;;8.38;100.00
23229;BME280;11783;50.350;6.576;2023-02-23T06:40:11;95810.94;;;8.39;100.00
23229;BME280;11783;50.350;6.576;2023-02-23T06:42:36;95808.75;;;8.36;100.00
23229;BME280;11783;50.350;6.576;2023-02-23T06:45:05;95807.38;;;8.34;100.00
23229;BME280;11783;50.350;6.576;2023-02-23T06:47:33;95810.59;;;8.36;100.00
23229;BME280;11783;50.350;6.576;2023-02-23T06:50:01;95815.44;;;8.39;100.00
23229;BME280;11783;50.350;6.576;2023-02-23T06:52:30;95817.03;;;8.40;100.00
23229;BME280;11783;50.350;6.576;2023-02-23T06:54:56;95819.44;;;8.41;100.00
23229;BME280;11783;50.350;6.576;2023-02-23T06:57:21;95823.13;;;8.40;100.00
23229;BME280;11783;50.350;6.576;2023-02-23T06:59:47;95828.44;;;8.40;100.00
23229;BME280;11783;50.350;6.576;2023-02-23T07:02:12;95836.13;;;8.42;100.00
23229;BME280;11783;50.350;6.576;2023-02-23T07:04:40;95835.31;;;8.41;100.00
23229;BME280;11783;50.350;6.576;2023-02-23T07:07:08;95833.25;;;8.43;100.00
23229;BME280;11783;50.350;6.576;2023-02-23T07:09:34;95848.56;;;8.41;100.00
23229;BME280;11783;50.350;6.576;2023-02-23T07:12:02;95857.31;;;8.42;100.00
23229;BME280;11783;50.350;6.576;2023-02-23T07:14:28;95859.72;;;8.43;100.00
23229;BME280;11783;50.350;6.576;2023-02-23T07:16:53;95859.72;;;8.43;100.00
23229;BME280;11783;50.350;6.576;2023-02-23T07:19:21;95869.03;;;8.46;100.00
23229;BME280;11783;50.350;6.576;2023-02-23T07:21:47;95868.22;;;8.45;100.00
23229;BME280;11783;50.350;6.576;2023-02-23T07:24:12;95873.22;;;8.42;100.00
23229;BME280;11783;50.350;6.576;2023-02-23T07:26:38;95881.38;;;8.40;100.00
23229;BME280;11783;50.350;6.576;2023-02-23T07:29:11;95879.53;;;8.41;100.00
23229;BME280;11783;50.350;6.576;2023-02-23T07:31:37;95877.94;;;8.40;100.00
23229;BME280;11783;50.350;6.576;2023-02-23T07:34:02;95879.78;;;8.39;100.00
23229;BME280;11783;50.350;6.576;2023-02-23T07:36:30;95877.38;;;8.38;100.00
23229;BME280;11783;50.350;6.576;2023-02-23T07:38:55;95882.19;;;8.41;100.00
23229;BME280;11783;50.350;6.576;2023-02-23T07:41:21;95883.63;;;8.48;100.00
23229;BME280;11783;50.350;6.576;2023-02-23T07:43:50;95888.38;;;8.46;100.00
23229;BME280;11783;50.350;6.576;2023-02-23T07:46:15;95888.84;;;8.43;100.00
23229;BME280;11783;50.350;6.576;2023-02-23T07:48:43;95888.13;;;8.48;100.00
23229;BME280;11783;50.350;6.576;2023-02-23T07:51:13;95887.66;;;8.51;100.00
23229;BME280;11783;50.350;6.576;2023-02-23T07:53:39;95891.59;;;8.48;100.00
23229;BME280;11783;50.350;6.576;2023-02-23T07:56:05;95891.50;;;8.43;100.00
23229;BME280;11783;50.350;6.576;2023-02-23T07:58:38;95892.06;;;8.45;100.00
23229;BME280;11783;50.350;6.576;2023-02-23T08:01:07;95888.94;;;8.48;100.00
23229;BME280;11783;50.350;6.576;2023-02-23T08:03:33;95888.13;;;8.48;100.00
23229;BME280;11783;50.350;6.576;2023-02-23T08:06:01;95896.56;;;8.45;100.00
23229;BME280;11783;50.350;6.576;2023-02-23T08:08:29;95891.25;;;8.45;100.00
23229;BME280;11783;50.350;6.576;2023-02-23T08:11:04;95902.75;;;8.50;100.00
23229;BME280;11783;50.350;6.576;2023-02-23T08:13:30;95904.81;;;8.48;100.00
23229;BME280;11783;50.350;6.576;2023-02-23T08:16:01;95903.22;;;8.47;100.00
23229;BME280;11783;50.350;6.576;2023-02-23T08:18:27;95901.13;;;8.49;100.00
23229;BME280;11783;50.350;6.576;2023-02-23T08:21:02;95904.25;;;8.46;100.00
23229;BME280;11783;50.350;6.576;2023-02-23T08:23:32;95897.84;;;8.42;100.00
23229;BME280;11783;50.350;6.576;2023-02-23T08:26:01;95905.53;;;8.44;100.00
23229;BME280;11783;50.350;6.576;2023-02-23T08:28:29;95907.38;;;8.43;100.00
23229;BME280;11783;50.350;6.576;2023-02-23T08:30:55;95904.97;;;8.42;100.00
23229;BME280;11783;50.350;6.576;2023-02-23T08:33:28;95907.16;;;8.45;100.00
23229;BME280;11783;50.350;6.576;2023-02-23T08:35:58;95905.88;;;8.47;100.00
23229;BME280;11783;50.350;6.576;2023-02-23T08:38:26;95904.25;;;8.46;100.00
23229;BME280;11783;50.350;6.576;2023-02-23T08:40:52;95907.47;;;8.48;100.00
23229;BME280;11783;50.350;6.576;2023-02-23T08:43:18;95915.41;;;8.48;100.00
23229;BME280;11783;50.350;6.576;2023-02-23T08:45:43;95907.47;;;8.48;100.00
23229;BME280;11783;50.350;6.576;2023-02-23T08:48:09;95911.97;;;8.48;100.00
23229;BME280;11783;50.350;6.576;2023-02-23T08:50:34;95913.56;;;8.49;100.00
23229;BME280;11783;50.350;6.576;2023-02-23T08:53:00;95913.56;;;8.49;100.00
23229;BME280;11783;50.350;6.576;2023-02-23T08:55:25;95908.28;;;8.49;100.00
23229;BME280;11783;50.350;6.576;2023-02-23T08:57:53;95914.13;;;8.51;100.00
23229;BME280;11783;50.350;6.576;2023-02-23T09:00:19;95913.56;;;8.49;100.00
23229;BME280;11783;50.350;6.576;2023-02-23T09:02:47;95926.00;;;8.48;100.00
23229;BME280;11783;50.350;6.576;2023-02-23T09:05:18;95921.19;;;8.45;100.00
23229;BME280;11783;50.350;6.576;2023-02-23T09:07:44;95919.09;;;8.47;100.00
23229;BME280;11783;50.350;6.576;2023-02-23T09:10:16;95931.88;;;8.50;100.00
23229;BME280;11783;50.350;6.576;2023-02-23T09:12:43;95933.16;;;8.48;100.00
23229;BME280;11783;50.350;6.576;2023-02-23T09:15:09;95930.75;;;8.46;100.00
23229;BME280;11783;50.350;6.576;2023-02-23T09:17:35;95941.34;;;8.46;100.00
23229;BME280;11783;50.350;6.576;2023-02-23T09:20:01;95934.75;;;8.49;100.00
23229;BME280;11783;50.350;6.576;2023-02-23T09:22:26;95938.69;;;8.46;100.00
23229;BME280;11783;50.350;6.576;2023-02-23T09:24:51;95937.88;;;8.46;100.00
23229;BME280;11783;50.350;6.576;2023-02-23T09:27:17;95944.00;;;8.46;100.00
23229;BME280;11783;50.350;6.576;2023-02-23T09:29:42;95935.81;;;8.48;100.00
23229;BME280;11783;50.350;6.576;2023-02-23T09:32:09;95942.94;;;8.47;100.00
23229;BME280;11783;50.350;6.576;2023-02-23T09:34:34;95948.25;;;8.47;100.00
23229;BME280;11783;50.350;6.576;2023-02-23T09:37:03;95939.97;;;8.44;100.00
23229;BME280;11783;50.350;6.576;2023-02-23T09:39:29;95944.78;;;8.47;100.00
23229;BME280;11783;50.350;6.576;2023-02-23T09:42:02;95945.28;;;8.44;100.00
23229;BME280;11783;50.350;6.576;2023-02-23T09:50:00;95959.50;;;8.55;100.00
23229;BME280;11783;50.350;6.576;2023-02-23T09:52:38;95953.97;;;8.56;100.00
23229;BME280;11783;50.350;6.576;2023-02-23T09:55:05;95953.97;;;8.56;100.00
23229;BME280;11783;50.350;6.576;2023-02-23T09:57:40;95959.59;;;8.60;100.00
23229;BME280;11783;50.350;6.576;2023-02-23T10:00:20;95955.44;;;8.64;100.00
23229;BME280;11783;50.350;6.576;2023-02-23T10:05:38;95956.31;;;8.69;100.00
23229;BME280;11783;50.350;6.576;2023-02-23T10:08:19;95961.16;;;8.72;100.00
23229;BME280;11783;50.350;6.576;2023-02-23T10:10:58;95959.66;;;8.76;100.00
23229;BME280;11783;50.350;6.576;2023-02-23T10:16:28;95961.59;;;8.81;100.00
23229;BME280;11783;50.350;6.576;2023-02-23T10:21:39;95962.06;;;8.78;100.00
23229;BME280;11783;50.350;6.576;2023-02-23T10:24:20;95970.66;;;8.85;100.00
23229;BME280;11783;50.350;6.576;2023-02-23T10:26:53;95972.34;;;8.91;100.00
23229;BME280;11783;50.350;6.576;2023-02-23T10:32:15;95980.88;;;8.93;100.00
23229;BME280;11783;50.350;6.576;2023-02-23T10:34:44;95982.00;;;8.97;100.00
23229;BME280;11783;50.350;6.576;2023-02-23T10:37:18;95983.63;;;8.98;100.00
23229;BME280;11783;50.350;6.576;2023-02-23T10:39:44;95979.13;;;8.99;100.00
23229;BME280;11783;50.350;6.576;2023-02-23T10:42:23;95980.72;;;9.00;100.00
23229;BME280;11783;50.350;6.576;2023-02-23T10:44:55;95979.53;;;9.07;100.00
23229;BME280;11783;50.350;6.576;2023-02-23T10:47:24;95977.44;;;9.09;100.00
23229;BME280;11783;50.350;6.576;2023-02-23T10:49:52;95984.69;;;9.14;100.00
23229;BME280;11783;50.350;6.576;2023-02-23T10:52:42;95986.38;;;9.20;100.00
23229;BME280;11783;50.350;6.576;2023-02-23T10:55:23;95978.75;;;9.24;100.00
23229;BME280;11783;50.350;6.576;2023-02-23T10:58:00;95978.81;;;9.29;100.00
23229;BME280;11783;50.350;6.576;2023-02-23T11:00:28;95978.00;;;9.28;100.00
23229;BME280;11783;50.350;6.576;2023-02-23T11:03:00;95984.34;;;9.27;100.00
23229;BME280;11783;50.350;6.576;2023-02-23T11:05:43;95979.47;;;9.36;100.00
23229;BME280;11783;50.350;6.576;2023-02-23T11:08:25;95981.16;;;9.42;100.00
23229;BME280;11783;50.350;6.576;2023-02-23T11:13:32;95980.03;;;9.55;100.00
23229;BME280;11783;50.350;6.576;2023-02-23T11:16:00;95977.69;;;9.58;100.00
23229;BME280;11783;50.350;6.576;2023-02-23T11:18:29;95980.41;;;9.63;100.00
23229;BME280;11783;50.350;6.576;2023-02-23T11:20:55;95975.13;;;9.63;100.00
23229;BME280;11783;50.350;6.576;2023-02-23T11:23:23;95976.47;;;9.66;100.00
23229;BME280;11783;50.350;6.576;2023-02-23T11:25:55;95980.19;;;9.65;100.00
23229;BME280;11783;50.350;6.576;2023-02-23T11:28:28;95977.06;;;9.68;100.00
23229;BME280;11783;50.350;6.576;2023-02-23T11:30:56;95973.19;;;9.76;100.00
23229;BME280;11783;50.350;6.576;2023-02-23T11:33:29;95972.38;;;9.75;100.00
23229;BME280;11783;50.350;6.576;2023-02-23T11:36:00;95969.47;;;9.77;100.00
23229;BME280;11783;50.350;6.576;2023-02-23T11:38:36;95968.75;;;9.81;100.00
23229;BME280;11783;50.350;6.576;2023-02-23T11:41:17;95967.44;;;9.84;100.00
23229;BME280;11783;50.350;6.576;2023-02-23T11:43:48;95965.19;;;9.92;100.00
23229;BME280;11783;50.350;6.576;2023-02-23T11:46:15;95964.19;;;9.98;100.00
23229;BME280;11783;50.350;6.576;2023-02-23T11:48:49;95964.75;;;10.00;100.00
23229;BME280;11783;50.350;6.576;2023-02-23T11:53:52;95957.84;;;9.99;98.59
23229;BME280;11783;50.350;6.576;2023-02-23T11:56:20;95960.69;;;9.93;99.56
23229;BME280;11783;50.350;6.576;2023-02-23T12:01:20;95953.94;;;9.85;100.00
23229;BME280;11783;50.350;6.576;2023-02-23T12:03:56;95955.47;;;9.81;99.35
23229;BME280;11783;50.350;6.576;2023-02-23T12:06:37;95955.72;;;9.80;100.00
23229;BME280;11783;50.350;6.576;2023-02-23T12:09:22;95956.03;;;9.83;100.00
23229;BME280;11783;50.350;6.576;2023-02-23T12:12:01;95955.31;;;9.88;100.00
23229;BME280;11783;50.350;6.576;2023-02-23T12:14:36;95953.53;;;9.93;100.00
23229;BME280;11783;50.350;6.576;2023-02-23T12:17:16;95950.13;;;9.98;100.00
23229;BME280;11783;50.350;6.576;2023-02-23T12:19:55;95946.72;;;10.02;100.00
23229;BME280;11783;50.350;6.576;2023-02-23T12:22:32;95948.09;;;10.05;100.00
23229;BME280;11783;50.350;6.576;2023-02-23T12:25:10;95942.31;;;10.08;99.81
23229;BME280;11783;50.350;6.576;2023-02-23T12:27:43;95944.16;;;10.08;100.00
23229;BME280;11783;50.350;6.576;2023-02-23T12:30:26;95946.56;;;10.09;100.00
23229;BME280;11783;50.350;6.576;2023-02-23T12:38:30;95948.16;;;10.10;100.00
23229;BME280;11783;50.350;6.576;2023-02-23T12:41:03;95939.41;;;10.10;99.71
23229;BME280;11783;50.350;6.576;2023-02-23T12:43:36;95935.38;;;10.07;99.78
23229;BME280;11783;50.350;6.576;2023-02-23T12:46:09;95938.28;;;10.06;99.77
23229;BME280;11783;50.350;6.576;2023-02-23T12:48:43;95942.56;;;10.07;99.96
23229;BME280;11783;50.350;6.576;2023-02-23T12:52:10;95938.28;;;10.06;100.00
23229;BME280;11783;50.350;6.576;2023-02-23T12:54:14;95940.69;;;10.07;100.00
23229;BME280;11783;50.350;6.576;2023-02-23T12:57:12;95947.38;;;10.10;99.83
23229;BME280;11783;50.350;6.576;2023-02-23T12:59:58;95936.75;;;10.10;99.76
23229;BME280;11783;50.350;6.576;2023-02-23T13:02:32;95930.63;;;10.09;99.91
23229;BME280;11783;50.350;6.576;2023-02-23T13:05:56;95937.00;;;10.08;99.83
23229;BME280;11783;50.350;6.576;2023-02-23T13:08:18;95935.38;;;10.07;99.51
23229;BME280;11783;50.350;6.576;2023-02-23T13:13:38;95938.28;;;10.06;99.87
23229;BME280;11783;50.350;6.576;2023-02-23T13:16:34;95934.84;;;10.05;100.00
23229;BME280;11783;50.350;6.576;2023-02-23T13:22:28;95939.25;;;9.99;100.00
23229;BME280;11783;50.350;6.576;2023-02-23T13:24:58;95944.81;;;9.98;100.00
23229;BME280;11783;50.350;6.576;2023-02-23T13:27:42;95949.56;;;9.96;100.00
23229;BME280;11783;50.350;6.576;2023-02-23T13:30:11;95946.84;;;9.91;100.00
23229;BME280;11783;50.350;6.576;2023-02-23T13:32:37;95944.75;;;9.93;100.00
23229;BME280;11783;50.350;6.576;2023-02-23T13:35:09;95946.59;;;9.92;100.00
23229;BME280;11783;50.350;6.576;2023-02-23T13:38:00;95940.00;;;9.95;100.00
23229;BME280;11783;50.350;6.576;2023-02-23T13:40:35;95944.00;;;9.97;99.06
23229;BME280;11783;50.350;6.576;2023-02-23T13:43:21;95943.69;;;9.94;99.87
23229;BME280;11783;50.350;6.576;2023-02-23T13:46:18;95936.00;;;9.92;99.89
23229;BME280;11783;50.350;6.576;2023-02-23T13:48:59;95938.34;;;9.89;100.00
23229;BME280;11783;50.350;6.576;2023-02-23T13:51:45;95941.00;;;9.89;100.00
23229;BME280;11783;50.350;6.576;2023-02-23T13:56:43;95938.34;;;9.89;100.00
23229;BME280;11783;50.350;6.576;2023-02-23T13:59:18;95944.50;;;9.94;100.00
23229;BME280;11783;50.350;6.576;2023-02-23T14:01:47;95949.25;;;9.92;100.00
23229;BME280;11783;50.350;6.576;2023-02-23T14:04:20;95950.06;;;9.93;100.00
23229;BME280;11783;50.350;6.576;2023-02-23T14:07:15;95954.31;;;9.94;99.73
23229;BME280;11783;50.350;6.576;2023-02-23T14:09:48;95961.25;;;9.95;99.59
23229;BME280;11783;50.350;6.576;2023-02-23T14:12:40;95961.25;;;9.95;99.63
23229;BME280;11783;50.350;6.576;2023-02-23T14:26:12;95953.75;;;9.92;99.89
23229;BME280;11783;50.350;6.576;2023-02-23T14:28:42;95953.53;;;9.93;99.69
23229;BME280;11783;50.350;6.576;2023-02-23T14:43:51;95955.22;;;9.83;100.00
23229;BME280;11783;50.350;6.576;2023-02-23T14:46:20;95954.66;;;9.81;100.00
23229;BME280;11783;50.350;6.576;2023-02-23T14:49:00;95955.97;;;9.78;100.00
23229;BME280;11783;50.350;6.576;2023-02-23T14:53:58;95957.56;;;9.79;100.00
23229;BME280;11783;50.350;6.576;2023-02-23T14:56:24;95960.22;;;9.79;100.00
23229;BME280;11783;50.350;6.576;2023-02-23T14:58:54;95964.72;;;9.79;100.00
23229;BME280;11783;50.350;6.576;2023-02-23T15:01:34;95954.66;;;9.81;100.00